Aérodrome :
LOGIN :

S'inscrire | Disclaimer

   EN    FR    IT 

 










Légende :    VFR   VFR Marginal   IFR   IFR Intensif   IFR Très Intensif
Visi : 
Plafond : 
>= 8 km
>= 3000ft
5 à 8 km
1000 à 3000 ft
1500m à 5 km
500 à 1000 ft
800 à 1500m
200 à 500 ft
< 800m
< 200 ft
Symboles :   Orages  Brouillard  Fortes neiges  Fortes précipitations  Vent > 20 kt
SIGMETs :   Divers  Orages  Givrage  Turbulence  Onde Orograph.  Cendres Volcan.







- Altitude de l'aérodrome : 1682 ft
- Code IATA : VIT


LEVT - Vitoria Gasteiz

DERNIER METAR :
  • 222130Z 02009KT 350V050 9999 SCT009 BKN014 18/15 Q1023

METARs EXPIRÉS :
  • 222100Z 02008KT 350V050 9999 SCT009 BKN014 18/15 Q1022
  • 222030Z 02007KT 340V060 9999 SCT009 BKN014 18/15 Q1022
  • 222000Z 02009KT 350V050 9999 SCT009 BKN014 18/16 Q1022
  • 221930Z 02010KT 340V040 9000 BKN014 19/16 Q1021
  • 221900Z 01008KT 340V060 9000 BKN011 19/16 Q1021

TAF AMD TAF LEVT
Valide du 22 à 18h jusqu'au 23 à 18h UTC


221830Z 2218/2318 36006KT 9999 SCT015 TX25/2315Z TN14/2305Z
TEMPO 2218/2220 SCT035TCU
PROB30
TEMPO 2218/2220 TSRA SCT030CB
TEMPO 2218/2308 BKN010
PROB40
TEMPO 2300/2308 BKN003
Pas de NOTAMs connus pour ce terrain.



MET'MAP, la Météo Aéronautique d'un coup d'oeil ! - Copyright ORBIFLY Décembre 2007 - Disclaimer

ORBIFLY MET'MAP TEAM :

Programmation & Développement : Alexandra Zaïnal
Conception & Développement : Baudouin d'Aumeries
Co-Programmation & Développement : Marc-Olivier Méhu
Soutien technique & logistique : Manuel Goepfert

Contact : metmap@orbifly.com




SOURCES & CREDITS :

   NOAA